createdAt,value
2019-05-06T00:04:34.112Z,10.47
2019-05-06T00:09:40.627Z,8.71
2019-05-06T00:14:47.581Z,9.55
2019-05-06T00:19:56.931Z,10.42
2019-05-06T00:25:05.392Z,11.43
2019-05-06T00:30:11.896Z,8.39
2019-05-06T00:35:18.453Z,8.72
2019-05-06T00:40:24.839Z,8.32
2019-05-06T00:45:31.240Z,8.56
2019-05-06T00:50:38.070Z,10.01
2019-05-06T00:55:44.636Z,10.81
2019-05-06T01:00:53.282Z,10.01
2019-05-06T01:06:00.123Z,9.51
2019-05-06T01:11:06.741Z,10.60
2019-05-06T01:16:13.253Z,10.01
2019-05-06T01:21:20.092Z,10.70
2019-05-06T01:26:26.378Z,10.22
2019-05-06T01:31:40.565Z,9.41
2019-05-06T01:36:38.989Z,9.13
2019-05-06T01:41:45.267Z,13.57
2019-05-06T01:46:51.793Z,9.51
2019-05-06T01:51:58.209Z,11.64
2019-05-06T01:57:04.757Z,11.43
2019-05-06T02:02:11.268Z,9.74
2019-05-06T02:07:17.626Z,12.31
2019-05-06T02:12:24.559Z,11.45
2019-05-06T02:17:31.153Z,8.66
2019-05-06T02:22:37.404Z,12.89
2019-05-06T02:27:44.531Z,10.29
2019-05-06T02:32:51.009Z,10.88
2019-05-06T02:37:57.567Z,9.92
2019-05-06T02:43:03.841Z,9.17
2019-05-06T02:48:10.190Z,10.02
2019-05-06T02:53:16.467Z,10.92
2019-05-06T02:58:23.780Z,11.52
2019-05-06T03:03:33.365Z,11.37
2019-05-06T03:08:43.203Z,11.98
2019-05-06T03:13:50.172Z,9.16
2019-05-06T03:18:56.455Z,11.28
2019-05-06T03:24:04.019Z,12.63
2019-05-06T03:29:03.702Z,10.93
2019-05-06T03:34:36.521Z,11.60
2019-05-06T03:39:16.316Z,12.17
2019-05-06T03:44:24.096Z,11.63
2019-05-06T03:49:33.737Z,11.33
2019-05-06T03:54:45.061Z,11.18
2019-05-06T03:59:43.565Z,12.99
2019-05-06T04:04:56.038Z,11.40
2019-05-06T04:09:53.794Z,13.47
2019-05-06T04:15:03.531Z,13.81
2019-05-06T04:20:03.769Z,12.38
2019-05-06T04:25:03.606Z,14.03
2019-05-06T04:30:13.278Z,12.66
2019-05-06T04:35:22.744Z,11.33
2019-05-06T04:40:32.936Z,11.89
2019-05-06T04:45:29.384Z,12.93
2019-05-06T04:50:35.636Z,16.21
2019-05-06T04:55:43.595Z,15.08
2019-05-06T05:00:53.151Z,11.72
2019-05-06T05:06:01.996Z,11.43
2019-05-06T05:11:03.568Z,11.52
2019-05-06T05:16:10.099Z,14.26
2019-05-06T05:21:16.410Z,10.94
2019-05-06T05:26:22.787Z,11.85
2019-05-06T05:31:32.946Z,13.50
2019-05-06T05:36:29.563Z,10.25
2019-05-06T05:41:36.110Z,9.86
2019-05-06T05:46:43.880Z,10.66
2019-05-06T05:51:51.983Z,10.51
2019-05-06T05:56:58.440Z,9.84
2019-05-06T06:02:05.441Z,9.71
2019-05-06T06:07:12.194Z,8.85
2019-05-06T06:12:18.589Z,9.74
2019-05-06T06:17:24.942Z,9.99
2019-05-06T06:22:33.087Z,11.43
2019-05-06T06:32:49.001Z,10.33
2019-05-06T06:37:55.347Z,10.30
2019-05-06T06:43:02.220Z,10.54
2019-05-06T06:48:08.731Z,10.48
2019-05-06T06:53:15.091Z,9.67
2019-05-06T06:58:22.743Z,8.93
2019-05-06T07:03:29.400Z,8.21
2019-05-06T07:08:37.671Z,8.05
2019-05-06T07:13:44.340Z,7.10
2019-05-06T07:18:52.618Z,7.80
2019-05-06T07:23:59.342Z,6.98
2019-05-06T07:29:15.280Z,7.24
2019-05-06T07:34:12.517Z,5.57
2019-05-06T07:39:18.605Z,7.43
2019-05-06T07:44:24.983Z,7.84
2019-05-06T07:49:32.964Z,7.87
2019-05-06T07:54:39.610Z,5.59
2019-05-06T07:59:45.768Z,8.97
2019-05-06T08:04:53.257Z,7.74
2019-05-06T08:10:13.573Z,9.22
2019-05-06T08:15:04.516Z,8.75
2019-05-06T08:20:02.491Z,8.23
2019-05-06T08:25:09.120Z,7.67
2019-05-06T08:30:16.879Z,5.20
2019-05-06T08:35:23.228Z,6.32
2019-05-06T08:40:29.474Z,4.85
2019-05-06T08:45:35.957Z,6.71
2019-05-06T08:50:42.594Z,5.90
2019-05-06T08:55:49.524Z,5.90
2019-05-06T09:00:57.618Z,4.81
2019-05-06T09:06:07.470Z,6.60
2019-05-06T09:11:14.016Z,4.55
2019-05-06T09:16:22.333Z,6.25
2019-05-06T09:21:34.953Z,5.83
2019-05-06T09:26:32.393Z,7.37
2019-05-06T09:31:39.203Z,9.73
2019-05-06T09:36:51.701Z,4.69
2019-05-06T09:41:57.813Z,4.54
2019-05-06T09:46:54.684Z,4.46
2019-05-06T09:52:02.527Z,4.85
2019-05-06T09:57:08.981Z,4.81
2019-05-06T10:02:15.150Z,5.84
2019-05-06T10:07:22.591Z,6.07
2019-05-06T10:12:28.943Z,5.04
2019-05-06T10:17:35.527Z,3.32
2019-05-06T10:22:43.093Z,3.66
2019-05-06T10:27:50.037Z,2.40
2019-05-06T10:32:56.429Z,3.48
2019-05-06T10:38:03.009Z,2.65
2019-05-06T10:43:09.415Z,2.43
2019-05-06T10:48:15.927Z,4.03
2019-05-06T10:53:23.290Z,5.31
2019-05-06T10:58:32.506Z,3.55
2019-05-06T11:03:39.359Z,3.30
2019-05-06T11:08:45.949Z,5.06
2019-05-06T11:13:52.270Z,5.07
2019-05-06T11:18:58.804Z,6.19
2019-05-06T11:24:06.313Z,5.50
2019-05-06T11:29:12.801Z,3.93
2019-05-06T11:34:19.198Z,2.61
2019-05-06T11:39:25.677Z,2.77
2019-05-06T11:44:32.378Z,1.97
2019-05-06T11:49:39.095Z,2.20
2019-05-06T11:54:45.931Z,3.23
2019-05-06T11:59:52.950Z,4.56
2019-05-06T12:04:59.440Z,4.84
2019-05-06T12:10:06.038Z,4.77
2019-05-06T12:15:12.935Z,4.02
2019-05-06T12:20:22.098Z,3.19
2019-05-06T12:25:28.873Z,3.48
2019-05-06T12:30:35.365Z,2.45
2019-05-06T12:35:42.769Z,2.25
2019-05-06T12:40:49.376Z,3.80
2019-05-06T12:45:55.843Z,2.55
2019-05-06T12:51:03.175Z,4.20
2019-05-06T12:56:09.542Z,3.99
2019-05-06T13:01:16.981Z,5.07
2019-05-06T13:06:26.339Z,4.29
2019-05-06T13:11:33.287Z,4.18
2019-05-06T13:16:39.580Z,3.78
2019-05-06T13:21:45.970Z,6.80
2019-05-06T13:26:52.890Z,4.61
2019-05-06T13:31:59.500Z,6.37
2019-05-06T13:37:05.800Z,5.67
2019-05-06T13:42:13.231Z,5.50
2019-05-06T13:47:22.400Z,7.41
2019-05-06T13:52:29.492Z,5.89
2019-05-06T13:57:39.025Z,6.29
2019-05-06T14:02:36.066Z,5.80
2019-05-06T14:07:43.264Z,7.39
2019-05-06T14:12:49.870Z,8.29
2019-05-06T14:17:56.144Z,7.89
2019-05-06T14:23:02.656Z,6.95
2019-05-06T14:28:09.007Z,5.39
2019-05-06T14:33:15.730Z,7.02
2019-05-06T14:38:24.534Z,6.47
2019-05-06T14:43:32.368Z,7.35
2019-05-06T14:48:39.044Z,8.10
2019-05-06T14:53:45.646Z,8.84
2019-05-06T14:58:52.047Z,6.25
2019-05-06T15:03:58.729Z,7.23
2019-05-06T15:09:05.524Z,8.43
2019-05-06T15:14:13.056Z,5.62
2019-05-06T15:19:22.583Z,6.01
2019-05-06T15:24:29.448Z,6.01
2019-05-06T15:29:35.726Z,6.82
2019-05-06T15:34:42.336Z,5.16
2019-05-06T15:39:49.535Z,6.58
2019-05-06T15:44:56.048Z,4.08
2019-05-06T15:50:02.936Z,5.13
2019-05-06T15:55:09.381Z,5.15
2019-05-06T16:00:16.030Z,6.44
2019-05-06T16:05:26.472Z,6.75
2019-05-06T16:10:23.547Z,6.52
2019-05-06T16:15:33.311Z,3.82
2019-05-06T16:20:33.177Z,5.31
2019-05-06T16:25:39.915Z,7.28
2019-05-06T16:30:46.739Z,7.67
2019-05-06T16:35:53.609Z,7.42
2019-05-06T16:41:10.286Z,8.09
2019-05-06T16:46:07.013Z,6.41
2019-05-06T16:51:15.533Z,6.20
2019-05-06T16:56:22.314Z,8.88
2019-05-06T17:01:29.914Z,6.49
2019-05-06T17:06:37.025Z,6.54
2019-05-06T17:11:43.747Z,6.92
2019-05-06T17:16:52.660Z,6.56
2019-05-06T17:21:59.795Z,8.57
2019-05-06T17:27:06.334Z,7.42
2019-05-06T17:32:12.627Z,7.39
2019-05-06T17:37:18.902Z,5.75
2019-05-06T17:42:25.402Z,6.10
2019-05-06T17:47:32.152Z,7.87
2019-05-06T17:52:38.543Z,6.73
2019-05-06T17:57:45.007Z,9.32
2019-05-06T18:02:52.676Z,7.37
2019-05-06T18:07:59.658Z,7.40
2019-05-06T18:13:07.421Z,6.25
2019-05-06T18:18:14.049Z,7.32
2019-05-06T18:23:22.276Z,10.92
2019-05-06T18:28:28.524Z,9.52
2019-05-06T18:33:34.842Z,7.00
2019-05-06T18:38:42.092Z,5.84
2019-05-06T18:43:49.168Z,8.61
2019-05-06T18:48:55.544Z,8.52
2019-05-06T18:54:03.087Z,6.67
2019-05-06T18:59:12.035Z,7.31
2019-05-06T19:04:18.868Z,5.68
2019-05-06T19:09:25.378Z,8.72
2019-05-06T19:14:32.963Z,6.29
2019-05-06T19:19:39.937Z,6.43
2019-05-06T19:24:46.873Z,7.24
2019-05-06T19:29:54.670Z,6.90
2019-05-06T19:35:02.696Z,12.17
2019-05-06T19:40:09.503Z,9.45
2019-05-06T19:45:15.944Z,8.72
2019-05-06T19:50:25.805Z,9.73
2019-05-06T19:55:23.121Z,11.09
2019-05-06T20:00:32.478Z,8.72
2019-05-06T20:05:39.387Z,8.75
2019-05-06T20:10:47.273Z,6.26
2019-05-06T20:15:53.454Z,8.45
2019-05-06T20:20:59.671Z,8.13
2019-05-06T20:26:06.473Z,7.66
2019-05-06T20:31:12.940Z,9.95
2019-05-06T20:36:19.801Z,8.83
2019-05-06T20:41:26.749Z,6.90
2019-05-06T20:46:33.120Z,7.17
2019-05-06T20:51:39.565Z,7.83
2019-05-06T20:56:45.898Z,8.00
2019-05-06T21:01:52.173Z,6.94
2019-05-06T21:06:58.563Z,5.98
2019-05-06T21:12:04.845Z,6.21
2019-05-06T21:17:12.436Z,6.62
2019-05-06T21:22:18.903Z,6.02
2019-05-06T21:27:25.048Z,7.38
2019-05-06T21:32:32.992Z,8.01
2019-05-06T21:37:39.224Z,7.40
2019-05-06T21:42:45.504Z,8.61
2019-05-06T21:47:53.033Z,8.14
2019-05-06T21:53:02.527Z,6.10
2019-05-06T21:58:09.534Z,6.55
2019-05-06T22:03:16.672Z,7.04
2019-05-06T22:08:23.734Z,7.60
2019-05-06T22:13:32.547Z,7.21
2019-05-06T22:18:40.017Z,7.09
2019-05-06T22:23:46.153Z,7.37
2019-05-06T22:28:52.638Z,7.13
2019-05-06T22:33:59.091Z,6.72
2019-05-06T22:39:05.380Z,7.31
2019-05-06T22:44:13.945Z,6.17
2019-05-06T22:49:22.518Z,8.89
2019-05-06T22:54:28.984Z,9.17
2019-05-06T22:59:35.281Z,8.62
2019-05-06T23:04:43.104Z,9.40
2019-05-06T23:09:52.023Z,7.66
2019-05-06T23:14:58.632Z,7.99
2019-05-06T23:20:04.908Z,8.17
2019-05-06T23:25:12.537Z,9.10
2019-05-06T23:30:18.991Z,9.89
2019-05-06T23:35:25.418Z,10.48
2019-05-06T23:40:33.125Z,8.08
2019-05-06T23:45:39.585Z,9.05
2019-05-06T23:50:45.883Z,5.72
2019-05-06T23:55:52.249Z,6.33
